Douglas B.gurian — WDH7352 — position and weather

sailwx.info

Track history (hours):
 
Tides and Currents Weather Stations Pressure Air Temp Water Temp Dewpoint Dewpoint Depression Visibility Wind Speed Wind Dir Waves Ship Positions

Douglas B.gurian

Owner: Port Imperial Ferry Corporation, Weehawken, NJ. More information available from US FCC via Universal Licensing System and Coast Guard Vessel Documentation Center.

Last reported at 2017-Oct-19 18:30 UTC. Time now 2017-Oct-19 18:41 UTC.
Position N 40°43' W 074°02'.

Length 21 m.

Type: Passenger vessel. MMSI: 366834170.

Date/timePositionNaut miles runAvg speedWind from/ knotsBaromVisibWave heightAir tempDewpointWater temp
2017-Oct-19 18:30N 40°43' W 074°02'1 2.8
2017-Oct-19 18:00N 40°42' W 074°00'2 4.3
2017-Oct-19 17:30N 40°44' W 074°02'2 4.5
2017-Oct-19 17:00N 40°46' W 074°01'0 0.0
2017-Oct-19 14:14N 40°46' W 074°01'312.9
2017-Oct-19 14:01N 40°43' W 074°01'2 3.1
2017-Oct-19 13:31N 40°42' W 074°00'0 0.4
2017-Oct-19 13:00N 40°42' W 074°00'0 0.0
2017-Oct-19 12:30N 40°42' W 074°00'0 0.0
2017-Oct-19 12:01N 40°42' W 074°00'0 0.1
2017-Oct-19 11:30N 40°42' W 074°00'0 0.1
2017-Oct-19 11:01N 40°42' W 074°00'0 0.1
2017-Oct-19 10:31N 40°42' W 074°00'2 4.5
2017-Oct-19 10:01N 40°44' W 074°02'2 0.2
2017-Oct-19 00:30N 40°46' W 074°01'4 8.7
2017-Oct-19 00:01N 40°42' W 074°00'2 3.4
2017-Oct-18 23:30N 40°43' W 074°02'0 0.2
2017-Oct-18 23:00N 40°43' W 074°03'0 0.1
2017-Oct-18 22:30N 40°43' W 074°03'0 0.1
2017-Oct-18 22:00N 40°43' W 074°03'0 0.2
2017-Oct-18 21:31N 40°43' W 074°03'0 0.0
2017-Oct-18 20:30N 40°43' W 074°03'1 1.7
2017-Oct-18 20:01N 40°43' W 074°01'4 7.3
2017-Oct-18 19:30N 40°46' W 074°01'0 0.0
2017-Oct-18 18:59N 40°46' W 074°01'0 0.0
2017-Oct-18 18:30N 40°46' W 074°01'2 4.5
2017-Oct-18 18:00N 40°44' W 074°02'1 2.8
2017-Oct-18 17:30N 40°43' W 074°02'1 2.4
2017-Oct-18 17:00N 40°42' W 074°00'1 2.4
2017-Oct-18 16:31N 40°43' W 074°02'1 2.4
2017-Oct-18 16:01N 40°42' W 074°00'1 2.6
2017-Oct-18 15:31N 40°43' W 074°02'1 2.6
2017-Oct-18 15:00N 40°42' W 074°00'0 0.1
2017-Oct-18 14:01N 40°42' W 074°00'2 3.5
2017-Oct-18 13:30N 40°43' W 074°03'0 0.0
2017-Oct-18 13:00N 40°43' W 074°03'0 0.0
2017-Oct-18 12:30N 40°43' W 074°03'0 0.0
2017-Oct-18 12:00N 40°43' W 074°03'0 0.0
2017-Oct-18 11:30N 40°43' W 074°03'0 0.0
2017-Oct-18 11:00N 40°43' W 074°03'0 0.0
2017-Oct-18 10:30N 40°43' W 074°03'0 0.0
2017-Oct-18 10:00N 40°43' W 074°03'0 0.1
2017-Oct-18 09:30N 40°43' W 074°03'0 0.0
2017-Oct-18 01:57N 40°43' W 074°03'2 4.8
2017-Oct-18 01:31N 40°41' W 074°03'2 4.4
2017-Oct-18 01:00N 40°42' W 074°01'2 4.2
2017-Oct-18 00:30N 40°41' W 074°03'2 3.9
2017-Oct-18 00:01N 40°42' W 074°01'1 1.1
2017-Oct-17 23:31N 40°42' W 074°00'0 0.0
2017-Oct-17 23:01N 40°42' W 074°00'0 0.0
2017-Oct-17 22:31N 40°42' W 074°00'0 0.0
2017-Oct-17 22:00N 40°42' W 074°00'0 0.0
2017-Oct-17 21:30N 40°42' W 074°00'0 0.1
2017-Oct-17 21:00N 40°42' W 074°00'0 0.1
2017-Oct-17 20:30N 40°42' W 074°00'0 0.3
2017-Oct-17 20:01N 40°42' W 074°00'1 2.8
2017-Oct-17 19:30N 40°43' W 074°02'1 2.8
2017-Oct-17 19:01N 40°42' W 074°00'1 2.8
2017-Oct-17 18:30N 40°43' W 074°02'1 2.8
2017-Oct-17 18:00N 40°42' W 074°00'2 4.4
2017-Oct-17 17:30N 40°44' W 074°02'2 0.7
2017-Oct-17 14:16N 40°46' W 074°01'413.4
2017-Oct-17 14:01N 40°43' W 074°01'1 2.1
2017-Oct-17 13:31N 40°42' W 074°00'0 0.0
2017-Oct-17 13:01N 40°42' W 074°00'0 0.0
2017-Oct-17 12:30N 40°42' W 074°00'0 0.0
2017-Oct-17 12:01N 40°42' W 074°00'0 0.0
2017-Oct-17 11:31N 40°42' W 074°00'0 0.2
2017-Oct-17 11:00N 40°42' W 074°00'0 0.2
2017-Oct-17 10:30N 40°42' W 074°00'4 7.3
2017-Oct-17 10:00N 40°46' W 074°01'1 0.1
2017-Oct-17 00:24N 40°46' W 074°01'411.5
2017-Oct-17 00:01N 40°42' W 074°01'1 2.7
2017-Oct-16 23:31N 40°43' W 074°02'0 0.1
2017-Oct-16 23:00N 40°43' W 074°03'0 0.1
2017-Oct-16 22:30N 40°43' W 074°03'0 0.1
2017-Oct-16 22:01N 40°43' W 074°03'0 0.2
2017-Oct-16 21:30N 40°43' W 074°02'0 0.2
2017-Oct-16 21:00N 40°43' W 074°03'0 0.3
2017-Oct-16 20:30N 40°43' W 074°02'2 3.3
2017-Oct-16 20:01N 40°44' W 074°01'2 4.4
2017-Oct-16 19:30N 40°46' W 074°01'0 0.0
2017-Oct-16 19:00N 40°46' W 074°01'0 0.0
2017-Oct-16 18:30N 40°46' W 074°01'0 0.0
2017-Oct-16 18:00N 40°46' W 074°01'4 7.1
2017-Oct-16 17:30N 40°43' W 074°02'1 2.7
2017-Oct-16 17:00N 40°42' W 074°00'1 2.7
2017-Oct-16 16:30N 40°43' W 074°02'1 2.7
2017-Oct-16 16:01N 40°42' W 074°00'1 2.7
2017-Oct-16 15:30N 40°43' W 074°02'1 2.7
2017-Oct-16 15:00N 40°42' W 074°00'1 2.8
2017-Oct-16 14:30N 40°43' W 074°02'0 0.5
2017-Oct-16 13:30N 40°43' W 074°03'0 0.0
2017-Oct-16 13:00N 40°43' W 074°03'0 0.0
2017-Oct-16 12:30N 40°43' W 074°03'0 0.0
2017-Oct-16 12:01N 40°43' W 074°03'0 0.0
2017-Oct-16 11:30N 40°43' W 074°03'0 0.0
2017-Oct-16 11:00N 40°43' W 074°03'0 0.0
2017-Oct-16 10:30N 40°43' W 074°03'0 0.0
2017-Oct-16 10:00N 40°43' W 074°03'0 0.0
2017-Oct-16 09:30N 40°43' W 074°03'0 0.0
2017-Oct-16 09:00N 40°43' W 074°03'0 0.0
2017-Oct-16 08:30N 40°43' W 074°03'0 0.0
2017-Oct-16 08:00N 40°43' W 074°03'0 0.0
2017-Oct-16 07:30N 40°43' W 074°03'0 0.0
2017-Oct-16 07:00N 40°43' W 074°03'0 0.0
2017-Oct-16 06:30N 40°43' W 074°03'0 0.0
2017-Oct-16 06:00N 40°43' W 074°03'0 0.0
2017-Oct-16 05:30N 40°43' W 074°03'0 0.0
2017-Oct-16 05:00N 40°43' W 074°03'0 0.0
2017-Oct-16 04:30N 40°43' W 074°03'0 0.0
2017-Oct-16 04:00N 40°43' W 074°03'0 0.0
2017-Oct-16 03:31N 40°43' W 074°03'0 0.0
2017-Oct-16 03:00N 40°43' W 074°03'0 0.0
2017-Oct-16 02:30N 40°43' W 074°03'0 0.0
2017-Oct-14 01:52N 40°43' W 074°03'2 5.9
2017-Oct-14 01:30N 40°41' W 074°04'3 5.8
2017-Oct-14 01:00N 40°42' W 074°01'3 5.6
2017-Oct-14 00:29N 40°41' W 074°04'3 5.8
2017-Oct-14 00:00N 40°42' W 074°01'0 0.6
2017-Oct-13 23:30N 40°42' W 074°00'0 0.0
2017-Oct-13 23:00N 40°42' W 074°00'0 0.0
2017-Oct-13 22:30N 40°42' W 074°00'0 0.0
2017-Oct-13 22:00N 40°42' W 074°00'0 0.0
2017-Oct-13 21:30N 40°42' W 074°00'0 0.0
2017-Oct-13 21:00N 40°42' W 074°00'0 0.0
2017-Oct-13 20:30N 40°42' W 074°00'1 1.8
2017-Oct-13 20:00N 40°42' W 074°01'1 1.2
2017-Oct-13 19:31N 40°43' W 074°02'1 1.5
2017-Oct-13 19:00N 40°42' W 074°01'1 1.6
2017-Oct-13 18:30N 40°43' W 074°02'1 2.8
2017-Oct-13 18:00N 40°42' W 074°00'2 4.3
2017-Oct-13 17:30N 40°44' W 074°02'2 0.7
2017-Oct-13 14:20N 40°46' W 074°01'413.0
2017-Oct-13 14:01N 40°42' W 074°00'0 0.2
2017-Oct-13 13:30N 40°42' W 074°00'0 0.0
2017-Oct-13 13:00N 40°42' W 074°00'0 0.0
2017-Oct-13 12:30N 40°42' W 074°00'0 0.2
2017-Oct-13 12:00N 40°42' W 074°00'0 0.2
2017-Oct-13 11:30N 40°42' W 074°00'0 0.0
2017-Oct-13 11:00N 40°42' W 074°00'0 0.1
2017-Oct-13 10:30N 40°42' W 074°00'2 3.1
2017-Oct-13 10:00N 40°43' W 074°02'4 7.7
2017-Oct-13 09:30N 40°46' W 074°01'0 0.0
2017-Oct-13 00:26N 40°46' W 074°01'410.4
2017-Oct-13 00:00N 40°42' W 074°01'2 3.2
2017-Oct-12 23:30N 40°43' W 074°03'0 0.0
2017-Oct-12 23:00N 40°43' W 074°03'0 0.0
2017-Oct-12 22:30N 40°43' W 074°03'0 0.0
2017-Oct-12 22:00N 40°43' W 074°03'0 0.0
2017-Oct-12 21:00N 40°43' W 074°03'0 0.0
2017-Oct-12 20:30N 40°43' W 074°03'1 1.1
2017-Oct-12 20:00N 40°43' W 074°02'3 1.5
2017-Oct-12 17:55N 40°46' W 074°01'3 7.4
2017-Oct-12 17:30N 40°43' W 074°02'1 2.8
2017-Oct-12 17:00N 40°42' W 074°00'1 2.7
2017-Oct-12 16:30N 40°43' W 074°02'1 2.6
2017-Oct-12 15:59N 40°42' W 074°00'1 2.8
2017-Oct-12 15:30N 40°43' W 074°02'1 2.8
2017-Oct-12 15:00N 40°42' W 074°00'1 2.7
2017-Oct-12 14:30N 40°43' W 074°02'1 2.7
2017-Oct-12 13:59N 40°42' W 074°00'2 3.6
2017-Oct-12 13:30N 40°43' W 074°03'0 0.0
2017-Oct-12 13:00N 40°43' W 074°03'0 0.0
2017-Oct-12 12:30N 40°43' W 074°03'0 0.0
2017-Oct-12 12:00N 40°43' W 074°03'0 0.0
2017-Oct-12 11:30N 40°43' W 074°03'0 0.0
2017-Oct-12 11:00N 40°43' W 074°03'0 0.0
2017-Oct-12 10:30N 40°43' W 074°03'0 0.0
2017-Oct-12 10:00N 40°43' W 074°03'0 0.0
2017-Oct-12 09:30N 40°43' W 074°03'0 0.0
2017-Oct-12 02:00N 40°43' W 074°03'2 4.2
2017-Oct-12 01:30N 40°41' W 074°04'2 4.4
2017-Oct-12 01:00N 40°43' W 074°02'2 4.3
2017-Oct-12 00:30N 40°41' W 074°04'3 5.8
2017-Oct-12 00:00N 40°42' W 074°01'1 2.8
2017-Oct-11 23:30N 40°43' W 074°02'0 0.1
2017-Oct-11 23:00N 40°43' W 074°03'0 0.0
2017-Oct-11 22:30N 40°43' W 074°03'0 0.1
2017-Oct-11 22:00N 40°43' W 074°03'0 0.0
2017-Oct-11 21:30N 40°43' W 074°03'0 0.2
2017-Oct-11 21:00N 40°43' W 074°02'0 0.3
2017-Oct-11 20:30N 40°43' W 074°02'0 0.8
2017-Oct-11 20:00N 40°43' W 074°02'3 6.8
2017-Oct-11 19:30N 40°46' W 074°01'4 0.2
2017-Oct-11 00:01N 40°42' W 074°00'0 0.3
2017-Oct-10 23:30N 40°42' W 074°00'0 0.0
2017-Oct-10 23:01N 40°42' W 074°00'0 0.0
2017-Oct-10 22:31N 40°42' W 074°00'0 0.0
2017-Oct-10 22:01N 40°42' W 074°00'0 0.0
2017-Oct-10 21:30N 40°42' W 074°00'0 0.0
2017-Oct-10 21:01N 40°42' W 074°00'0 0.0
2017-Oct-10 20:30N 40°42' W 074°00'0 0.0
2017-Oct-10 20:00N 40°42' W 074°00'1 2.8
2017-Oct-10 19:30N 40°43' W 074°02'1 2.7
2017-Oct-10 19:00N 40°42' W 074°00'1 2.8
2017-Oct-10 18:31N 40°43' W 074°02'1 2.7
2017-Oct-10 18:00N 40°42' W 074°00'2 4.4
2017-Oct-10 17:30N 40°44' W 074°02'2 4.5
2017-Oct-10 17:00N 40°46' W 074°01'1 0.2
2017-Oct-10 14:01N 40°46' W 074°00'0 0.2
2017-Oct-10 13:30N 40°46' W 074°00'0 0.0
2017-Oct-10 13:00N 40°46' W 074°00'0 0.0
2017-Oct-10 12:30N 40°46' W 074°00'0 0.1
2017-Oct-10 12:00N 40°46' W 074°00'0 0.0
2017-Oct-10 11:30N 40°46' W 074°00'0 0.0
2017-Oct-10 11:00N 40°46' W 074°00'0 0.0
2017-Oct-10 10:30N 40°46' W 074°00'1 0.1
2017-Oct-09 23:50N 40°45' W 074°01'1 2.9
2017-Oct-09 23:30N 40°46' W 074°00'0 0.0
2017-Oct-09 23:00N 40°46' W 074°00'0 0.0
2017-Oct-09 22:30N 40°46' W 074°00'0 0.0
2017-Oct-09 22:00N 40°46' W 074°00'0 0.0
2017-Oct-09 21:30N 40°46' W 074°00'0 0.0
2017-Oct-09 21:00N 40°46' W 074°00'0 0.1
2017-Oct-09 20:31N 40°46' W 074°00'0 0.0
2017-Oct-09 20:00N 40°46' W 074°00'1 1.4
2017-Oct-09 19:30N 40°46' W 074°01'  
Track history (hours):
 
Tides and Currents Weather Stations Pressure Air Temp Water Temp Dewpoint Dewpoint Depression Visibility Wind Speed Wind Dir Waves Ship Positions

Douglas B.gurian

Owner: Port Imperial Ferry Corporation, Weehawken, NJ. More information available from US FCC via Universal Licensing System and Coast Guard Vessel Documentation Center.

Last reported at 2017-Oct-19 18:30 UTC. Time now 2017-Oct-19 18:41 UTC.
Position N 40°43' W 074°02'.

Length 21 m.

Type: Passenger vessel. MMSI: 366834170.

Date/timePositionNaut miles runAvg speedWind from/ knotsBaromVisibWave heightAir tempDewpointWater temp
2017-Oct-19 18:30N 40°43' W 074°02'1 2.8
2017-Oct-19 18:00N 40°42' W 074°00'2 4.3
2017-Oct-19 17:30N 40°44' W 074°02'2 4.5
2017-Oct-19 17:00N 40°46' W 074°01'0 0.0
2017-Oct-19 14:14N 40°46' W 074°01'312.9
2017-Oct-19 14:01N 40°43' W 074°01'2 3.1
2017-Oct-19 13:31N 40°42' W 074°00'0 0.4
2017-Oct-19 13:00N 40°42' W 074°00'0 0.0
2017-Oct-19 12:30N 40°42' W 074°00'0 0.0
2017-Oct-19 12:01N 40°42' W 074°00'0 0.1
2017-Oct-19 11:30N 40°42' W 074°00'0 0.1
2017-Oct-19 11:01N 40°42' W 074°00'0 0.1
2017-Oct-19 10:31N 40°42' W 074°00'2 4.5
2017-Oct-19 10:01N 40°44' W 074°02'2 0.2
2017-Oct-19 00:30N 40°46' W 074°01'4 8.7
2017-Oct-19 00:01N 40°42' W 074°00'2 3.4
2017-Oct-18 23:30N 40°43' W 074°02'0 0.2
2017-Oct-18 23:00N 40°43' W 074°03'0 0.1
2017-Oct-18 22:30N 40°43' W 074°03'0 0.1
2017-Oct-18 22:00N 40°43' W 074°03'0 0.2
2017-Oct-18 21:31N 40°43' W 074°03'0 0.0
2017-Oct-18 20:30N 40°43' W 074°03'1 1.7
2017-Oct-18 20:01N 40°43' W 074°01'4 7.3
2017-Oct-18 19:30N 40°46' W 074°01'0 0.0
2017-Oct-18 18:59N 40°46' W 074°01'0 0.0
2017-Oct-18 18:30N 40°46' W 074°01'2 4.5
2017-Oct-18 18:00N 40°44' W 074°02'1 2.8
2017-Oct-18 17:30N 40°43' W 074°02'1 2.4
2017-Oct-18 17:00N 40°42' W 074°00'1 2.4
2017-Oct-18 16:31N 40°43' W 074°02'1 2.4
2017-Oct-18 16:01N 40°42' W 074°00'1 2.6
2017-Oct-18 15:31N 40°43' W 074°02'1 2.6
2017-Oct-18 15:00N 40°42' W 074°00'0 0.1
2017-Oct-18 14:01N 40°42' W 074°00'2 3.5
2017-Oct-18 13:30N 40°43' W 074°03'0 0.0
2017-Oct-18 13:00N 40°43' W 074°03'0 0.0
2017-Oct-18 12:30N 40°43' W 074°03'0 0.0
2017-Oct-18 12:00N 40°43' W 074°03'0 0.0
2017-Oct-18 11:30N 40°43' W 074°03'0 0.0
2017-Oct-18 11:00N 40°43' W 074°03'0 0.0
2017-Oct-18 10:30N 40°43' W 074°03'0 0.0
2017-Oct-18 10:00N 40°43' W 074°03'0 0.1
2017-Oct-18 09:30N 40°43' W 074°03'0 0.0
2017-Oct-18 01:57N 40°43' W 074°03'2 4.8
2017-Oct-18 01:31N 40°41' W 074°03'2 4.4
2017-Oct-18 01:00N 40°42' W 074°01'2 4.2
2017-Oct-18 00:30N 40°41' W 074°03'2 3.9
2017-Oct-18 00:01N 40°42' W 074°01'1 1.1
2017-Oct-17 23:31N 40°42' W 074°00'0 0.0
2017-Oct-17 23:01N 40°42' W 074°00'0 0.0
2017-Oct-17 22:31N 40°42' W 074°00'0 0.0
2017-Oct-17 22:00N 40°42' W 074°00'0 0.0
2017-Oct-17 21:30N 40°42' W 074°00'0 0.1
2017-Oct-17 21:00N 40°42' W 074°00'0 0.1
2017-Oct-17 20:30N 40°42' W 074°00'0 0.3
2017-Oct-17 20:01N 40°42' W 074°00'1 2.8
2017-Oct-17 19:30N 40°43' W 074°02'1 2.8
2017-Oct-17 19:01N 40°42' W 074°00'1 2.8
2017-Oct-17 18:30N 40°43' W 074°02'1 2.8
2017-Oct-17 18:00N 40°42' W 074°00'2 4.4
2017-Oct-17 17:30N 40°44' W 074°02'2 0.7
2017-Oct-17 14:16N 40°46' W 074°01'413.4
2017-Oct-17 14:01N 40°43' W 074°01'1 2.1
2017-Oct-17 13:31N 40°42' W 074°00'0 0.0
2017-Oct-17 13:01N 40°42' W 074°00'0 0.0
2017-Oct-17 12:30N 40°42' W 074°00'0 0.0
2017-Oct-17 12:01N 40°42' W 074°00'0 0.0
2017-Oct-17 11:31N 40°42' W 074°00'0 0.2
2017-Oct-17 11:00N 40°42' W 074°00'0 0.2
2017-Oct-17 10:30N 40°42' W 074°00'4 7.3
2017-Oct-17 10:00N 40°46' W 074°01'1 0.1
2017-Oct-17 00:24N 40°46' W 074°01'411.5
2017-Oct-17 00:01N 40°42' W 074°01'1 2.7
2017-Oct-16 23:31N 40°43' W 074°02'0 0.1
2017-Oct-16 23:00N 40°43' W 074°03'0 0.1
2017-Oct-16 22:30N 40°43' W 074°03'0 0.1
2017-Oct-16 22:01N 40°43' W 074°03'0 0.2
2017-Oct-16 21:30N 40°43' W 074°02'0 0.2
2017-Oct-16 21:00N 40°43' W 074°03'0 0.3
2017-Oct-16 20:30N 40°43' W 074°02'2 3.3
2017-Oct-16 20:01N 40°44' W 074°01'2 4.4
2017-Oct-16 19:30N 40°46' W 074°01'0 0.0
2017-Oct-16 19:00N 40°46' W 074°01'0 0.0
2017-Oct-16 18:30N 40°46' W 074°01'0 0.0
2017-Oct-16 18:00N 40°46' W 074°01'4 7.1
2017-Oct-16 17:30N 40°43' W 074°02'1 2.7
2017-Oct-16 17:00N 40°42' W 074°00'1 2.7
2017-Oct-16 16:30N 40°43' W 074°02'1 2.7
2017-Oct-16 16:01N 40°42' W 074°00'1 2.7
2017-Oct-16 15:30N 40°43' W 074°02'1 2.7
2017-Oct-16 15:00N 40°42' W 074°00'1 2.8
2017-Oct-16 14:30N 40°43' W 074°02'0 0.5
2017-Oct-16 13:30N 40°43' W 074°03'0 0.0
2017-Oct-16 13:00N 40°43' W 074°03'0 0.0
2017-Oct-16 12:30N 40°43' W 074°03'0 0.0
2017-Oct-16 12:01N 40°43' W 074°03'0 0.0
2017-Oct-16 11:30N 40°43' W 074°03'0 0.0
2017-Oct-16 11:00N 40°43' W 074°03'0 0.0
2017-Oct-16 10:30N 40°43' W 074°03'0 0.0
2017-Oct-16 10:00N 40°43' W 074°03'0 0.0
2017-Oct-16 09:30N 40°43' W 074°03'0 0.0
2017-Oct-16 09:00N 40°43' W 074°03'0 0.0
2017-Oct-16 08:30N 40°43' W 074°03'0 0.0
2017-Oct-16 08:00N 40°43' W 074°03'0 0.0
2017-Oct-16 07:30N 40°43' W 074°03'0 0.0
2017-Oct-16 07:00N 40°43' W 074°03'0 0.0
2017-Oct-16 06:30N 40°43' W 074°03'0 0.0
2017-Oct-16 06:00N 40°43' W 074°03'0 0.0
2017-Oct-16 05:30N 40°43' W 074°03'0 0.0
2017-Oct-16 05:00N 40°43' W 074°03'0 0.0
2017-Oct-16 04:30N 40°43' W 074°03'0 0.0
2017-Oct-16 04:00N 40°43' W 074°03'0 0.0
2017-Oct-16 03:31N 40°43' W 074°03'0 0.0
2017-Oct-16 03:00N 40°43' W 074°03'0 0.0
2017-Oct-16 02:30N 40°43' W 074°03'0 0.0
2017-Oct-14 01:52N 40°43' W 074°03'2 5.9
2017-Oct-14 01:30N 40°41' W 074°04'3 5.8
2017-Oct-14 01:00N 40°42' W 074°01'3 5.6
2017-Oct-14 00:29N 40°41' W 074°04'3 5.8
2017-Oct-14 00:00N 40°42' W 074°01'0 0.6
2017-Oct-13 23:30N 40°42' W 074°00'0 0.0
2017-Oct-13 23:00N 40°42' W 074°00'0 0.0
2017-Oct-13 22:30N 40°42' W 074°00'0 0.0
2017-Oct-13 22:00N 40°42' W 074°00'0 0.0
2017-Oct-13 21:30N 40°42' W 074°00'0 0.0
2017-Oct-13 21:00N 40°42' W 074°00'0 0.0
2017-Oct-13 20:30N 40°42' W 074°00'1 1.8
2017-Oct-13 20:00N 40°42' W 074°01'1 1.2
2017-Oct-13 19:31N 40°43' W 074°02'1 1.5
2017-Oct-13 19:00N 40°42' W 074°01'1 1.6
2017-Oct-13 18:30N 40°43' W 074°02'1 2.8
2017-Oct-13 18:00N 40°42' W 074°00'2 4.3
2017-Oct-13 17:30N 40°44' W 074°02'2 0.7
2017-Oct-13 14:20N 40°46' W 074°01'413.0
2017-Oct-13 14:01N 40°42' W 074°00'0 0.2
2017-Oct-13 13:30N 40°42' W 074°00'0 0.0
2017-Oct-13 13:00N 40°42' W 074°00'0 0.0
2017-Oct-13 12:30N 40°42' W 074°00'0 0.2
2017-Oct-13 12:00N 40°42' W 074°00'0 0.2
2017-Oct-13 11:30N 40°42' W 074°00'0 0.0
2017-Oct-13 11:00N 40°42' W 074°00'0 0.1
2017-Oct-13 10:30N 40°42' W 074°00'2 3.1
2017-Oct-13 10:00N 40°43' W 074°02'4 7.7
2017-Oct-13 09:30N 40°46' W 074°01'0 0.0
2017-Oct-13 00:26N 40°46' W 074°01'410.4
2017-Oct-13 00:00N 40°42' W 074°01'2 3.2
2017-Oct-12 23:30N 40°43' W 074°03'0 0.0
2017-Oct-12 23:00N 40°43' W 074°03'0 0.0
2017-Oct-12 22:30N 40°43' W 074°03'0 0.0
2017-Oct-12 22:00N 40°43' W 074°03'0 0.0
2017-Oct-12 21:00N 40°43' W 074°03'0 0.0
2017-Oct-12 20:30N 40°43' W 074°03'1 1.1
2017-Oct-12 20:00N 40°43' W 074°02'3 1.5
2017-Oct-12 17:55N 40°46' W 074°01'3 7.4
2017-Oct-12 17:30N 40°43' W 074°02'1 2.8
2017-Oct-12 17:00N 40°42' W 074°00'1 2.7
2017-Oct-12 16:30N 40°43' W 074°02'1 2.6
2017-Oct-12 15:59N 40°42' W 074°00'1 2.8
2017-Oct-12 15:30N 40°43' W 074°02'1 2.8
2017-Oct-12 15:00N 40°42' W 074°00'1 2.7
2017-Oct-12 14:30N 40°43' W 074°02'1 2.7
2017-Oct-12 13:59N 40°42' W 074°00'2 3.6
2017-Oct-12 13:30N 40°43' W 074°03'0 0.0
2017-Oct-12 13:00N 40°43' W 074°03'0 0.0
2017-Oct-12 12:30N 40°43' W 074°03'0 0.0
2017-Oct-12 12:00N 40°43' W 074°03'0 0.0
2017-Oct-12 11:30N 40°43' W 074°03'0 0.0
2017-Oct-12 11:00N 40°43' W 074°03'0 0.0
2017-Oct-12 10:30N 40°43' W 074°03'0 0.0
2017-Oct-12 10:00N 40°43' W 074°03'0 0.0
2017-Oct-12 09:30N 40°43' W 074°03'0 0.0
2017-Oct-12 02:00N 40°43' W 074°03'2 4.2
2017-Oct-12 01:30N 40°41' W 074°04'2 4.4
2017-Oct-12 01:00N 40°43' W 074°02'2 4.3
2017-Oct-12 00:30N 40°41' W 074°04'3 5.8
2017-Oct-12 00:00N 40°42' W 074°01'1 2.8
2017-Oct-11 23:30N 40°43' W 074°02'0 0.1
2017-Oct-11 23:00N 40°43' W 074°03'0 0.0
2017-Oct-11 22:30N 40°43' W 074°03'0 0.1
2017-Oct-11 22:00N 40°43' W 074°03'0 0.0
2017-Oct-11 21:30N 40°43' W 074°03'0 0.2
2017-Oct-11 21:00N 40°43' W 074°02'0 0.3
2017-Oct-11 20:30N 40°43' W 074°02'0 0.8
2017-Oct-11 20:00N 40°43' W 074°02'3 6.8
2017-Oct-11 19:30N 40°46' W 074°01'4 0.2
2017-Oct-11 00:01N 40°42' W 074°00'0 0.3
2017-Oct-10 23:30N 40°42' W 074°00'0 0.0
2017-Oct-10 23:01N 40°42' W 074°00'0 0.0
2017-Oct-10 22:31N 40°42' W 074°00'0 0.0
2017-Oct-10 22:01N 40°42' W 074°00'0 0.0
2017-Oct-10 21:30N 40°42' W 074°00'0 0.0
2017-Oct-10 21:01N 40°42' W 074°00'0 0.0
2017-Oct-10 20:30N 40°42' W 074°00'0 0.0
2017-Oct-10 20:00N 40°42' W 074°00'1 2.8
2017-Oct-10 19:30N 40°43' W 074°02'1 2.7
2017-Oct-10 19:00N 40°42' W 074°00'1 2.8
2017-Oct-10 18:31N 40°43' W 074°02'1 2.7
2017-Oct-10 18:00N 40°42' W 074°00'2 4.4
2017-Oct-10 17:30N 40°44' W 074°02'2 4.5
2017-Oct-10 17:00N 40°46' W 074°01'1 0.2
2017-Oct-10 14:01N 40°46' W 074°00'0 0.2
2017-Oct-10 13:30N 40°46' W 074°00'0 0.0
2017-Oct-10 13:00N 40°46' W 074°00'0 0.0
2017-Oct-10 12:30N 40°46' W 074°00'0 0.1
2017-Oct-10 12:00N 40°46' W 074°00'0 0.0
2017-Oct-10 11:30N 40°46' W 074°00'0 0.0
2017-Oct-10 11:00N 40°46' W 074°00'0 0.0
2017-Oct-10 10:30N 40°46' W 074°00'1 0.1
2017-Oct-09 23:50N 40°45' W 074°01'1 2.9
2017-Oct-09 23:30N 40°46' W 074°00'0 0.0
2017-Oct-09 23:00N 40°46' W 074°00'0 0.0
2017-Oct-09 22:30N 40°46' W 074°00'0 0.0
2017-Oct-09 22:00N 40°46' W 074°00'0 0.0
2017-Oct-09 21:30N 40°46' W 074°00'0 0.0
2017-Oct-09 21:00N 40°46' W 074°00'0 0.1
2017-Oct-09 20:31N 40°46' W 074°00'0 0.0
2017-Oct-09 20:00N 40°46' W 074°00'1 1.4
2017-Oct-09 19:30N 40°46' W 074°01'  

Dump ship's entire track history